sensor_id;sensor_type;location;lat;lon;timestamp;temperature;humidity
51863;DHT22;37900;52.996;6.278;2023-09-19T00:02:23;20.00;99.90
51863;DHT22;37900;52.996;6.278;2023-09-19T00:04:48;20.00;99.90
51863;DHT22;37900;52.996;6.278;2023-09-19T00:07:15;20.00;99.90
51863;DHT22;37900;52.996;6.278;2023-09-19T00:09:41;20.00;99.90
51863;DHT22;37900;52.996;6.278;2023-09-19T00:12:09;20.00;99.90
51863;DHT22;37900;52.996;6.278;2023-09-19T00:14:35;20.00;99.90
51863;DHT22;37900;52.996;6.278;2023-09-19T00:17:03;20.00;99.90
51863;DHT22;37900;52.996;6.278;2023-09-19T00:19:36;20.00;99.90
51863;DHT22;37900;52.996;6.278;2023-09-19T00:22:03;20.00;99.90
51863;DHT22;37900;52.996;6.278;2023-09-19T00:24:29;20.00;99.90
51863;DHT22;37900;52.996;6.278;2023-09-19T00:26:55;20.00;99.90
51863;DHT22;37900;52.996;6.278;2023-09-19T00:29:25;20.00;99.90
51863;DHT22;37900;52.996;6.278;2023-09-19T00:31:55;20.00;99.90
51863;DHT22;37900;52.996;6.278;2023-09-19T00:34:20;20.00;99.90
51863;DHT22;37900;52.996;6.278;2023-09-19T00:36:46;20.00;99.90
51863;DHT22;37900;52.996;6.278;2023-09-19T00:39:11;20.00;99.90
51863;DHT22;37900;52.996;6.278;2023-09-19T00:41:37;20.00;99.90
51863;DHT22;37900;52.996;6.278;2023-09-19T00:44:03;20.00;99.90
51863;DHT22;37900;52.996;6.278;2023-09-19T00:46:30;20.00;99.90
51863;DHT22;37900;52.996;6.278;2023-09-19T00:48:56;20.00;99.90
51863;DHT22;37900;52.996;6.278;2023-09-19T00:51:22;19.90;99.90
51863;DHT22;37900;52.996;6.278;2023-09-19T00:53:48;20.00;99.90
51863;DHT22;37900;52.996;6.278;2023-09-19T00:56:14;20.00;99.90
51863;DHT22;37900;52.996;6.278;2023-09-19T00:58:44;19.90;99.90
51863;DHT22;37900;52.996;6.278;2023-09-19T01:01:09;19.90;99.90
51863;DHT22;37900;52.996;6.278;2023-09-19T01:03:37;19.90;99.90
51863;DHT22;37900;52.996;6.278;2023-09-19T01:06:02;19.90;99.90
51863;DHT22;37900;52.996;6.278;2023-09-19T01:08:28;19.90;99.90
51863;DHT22;37900;52.996;6.278;2023-09-19T01:10:55;19.90;99.90
51863;DHT22;37900;52.996;6.278;2023-09-19T01:13:33;19.90;99.90
51863;DHT22;37900;52.996;6.278;2023-09-19T01:18:27;19.90;99.90
51863;DHT22;37900;52.996;6.278;2023-09-19T01:28:59;19.90;99.90
51863;DHT22;37900;52.996;6.278;2023-09-19T01:31:28;19.90;99.90
51863;DHT22;37900;52.996;6.278;2023-09-19T01:34:01;19.90;99.90
51863;DHT22;37900;52.996;6.278;2023-09-19T01:36:28;19.90;99.90
51863;DHT22;37900;52.996;6.278;2023-09-19T01:38:54;19.90;99.90
51863;DHT22;37900;52.996;6.278;2023-09-19T01:41:37;19.90;99.90
51863;DHT22;37900;52.996;6.278;2023-09-19T01:44:04;19.90;99.90
51863;DHT22;37900;52.996;6.278;2023-09-19T01:46:33;19.90;99.90
51863;DHT22;37900;52.996;6.278;2023-09-19T01:49:13;19.90;99.90
51863;DHT22;37900;52.996;6.278;2023-09-19T01:54:10;19.90;99.90
51863;DHT22;37900;52.996;6.278;2023-09-19T01:56:44;19.90;99.90
51863;DHT22;37900;52.996;6.278;2023-09-19T01:59:12;19.90;99.90
51863;DHT22;37900;52.996;6.278;2023-09-19T02:01:38;19.90;99.90
51863;DHT22;37900;52.996;6.278;2023-09-19T02:04:04;19.90;99.90
51863;DHT22;37900;52.996;6.278;2023-09-19T02:06:30;19.90;99.90
51863;DHT22;37900;52.996;6.278;2023-09-19T02:08:56;19.90;99.90
51863;DHT22;37900;52.996;6.278;2023-09-19T02:11:22;19.90;99.90
51863;DHT22;37900;52.996;6.278;2023-09-19T02:13:48;19.90;99.90
51863;DHT22;37900;52.996;6.278;2023-09-19T02:16:20;19.90;99.90
51863;DHT22;37900;52.996;6.278;2023-09-19T02:18:49;19.90;99.90
51863;DHT22;37900;52.996;6.278;2023-09-19T02:21:15;19.90;99.90
51863;DHT22;37900;52.996;6.278;2023-09-19T02:23:41;19.90;99.90
51863;DHT22;37900;52.996;6.278;2023-09-19T02:26:06;19.80;99.90
51863;DHT22;37900;52.996;6.278;2023-09-19T02:28:32;19.90;99.90
51863;DHT22;37900;52.996;6.278;2023-09-19T02:30:58;19.90;99.90
51863;DHT22;37900;52.996;6.278;2023-09-19T02:33:24;19.90;99.90
51863;DHT22;37900;52.996;6.278;2023-09-19T02:35:49;19.80;99.90
51863;DHT22;37900;52.996;6.278;2023-09-19T02:38:15;19.90;99.90
51863;DHT22;37900;52.996;6.278;2023-09-19T02:40:46;19.90;99.90
51863;DHT22;37900;52.996;6.278;2023-09-19T02:43:11;19.80;99.90
51863;DHT22;37900;52.996;6.278;2023-09-19T02:45:37;19.80;99.90
51863;DHT22;37900;52.996;6.278;2023-09-19T02:48:03;19.90;99.90
51863;DHT22;37900;52.996;6.278;2023-09-19T02:50:29;19.80;99.90
51863;DHT22;37900;52.996;6.278;2023-09-19T02:52:55;19.80;99.90
51863;DHT22;37900;52.996;6.278;2023-09-19T02:55:21;19.80;99.90
51863;DHT22;37900;52.996;6.278;2023-09-19T02:57:47;19.80;99.90
51863;DHT22;37900;52.996;6.278;2023-09-19T03:00:13;19.80;99.90
51863;DHT22;37900;52.996;6.278;2023-09-19T03:02:39;19.80;99.90
51863;DHT22;37900;52.996;6.278;2023-09-19T03:05:06;19.80;99.90
51863;DHT22;37900;52.996;6.278;2023-09-19T03:07:33;19.80;99.90
51863;DHT22;37900;52.996;6.278;2023-09-19T03:09:59;19.80;99.90
51863;DHT22;37900;52.996;6.278;2023-09-19T03:12:25;19.80;99.90
51863;DHT22;37900;52.996;6.278;2023-09-19T03:14:51;19.80;99.90
51863;DHT22;37900;52.996;6.278;2023-09-19T03:17:17;19.80;99.90
51863;DHT22;37900;52.996;6.278;2023-09-19T03:19:45;19.80;99.90
51863;DHT22;37900;52.996;6.278;2023-09-19T03:22:10;19.80;99.90
51863;DHT22;37900;52.996;6.278;2023-09-19T03:24:36;19.80;99.90
51863;DHT22;37900;52.996;6.278;2023-09-19T03:27:03;19.80;99.90
51863;DHT22;37900;52.996;6.278;2023-09-19T03:29:28;19.80;99.90
51863;DHT22;37900;52.996;6.278;2023-09-19T03:31:54;19.80;99.90
51863;DHT22;37900;52.996;6.278;2023-09-19T03:34:20;19.80;99.90
51863;DHT22;37900;52.996;6.278;2023-09-19T03:36:46;19.80;99.90
51863;DHT22;37900;52.996;6.278;2023-09-19T03:39:11;19.80;99.90
51863;DHT22;37900;52.996;6.278;2023-09-19T03:41:37;19.80;99.90
51863;DHT22;37900;52.996;6.278;2023-09-19T03:44:02;19.80;99.90
51863;DHT22;37900;52.996;6.278;2023-09-19T03:46:28;19.80;99.90
51863;DHT22;37900;52.996;6.278;2023-09-19T03:48:54;19.80;99.90
51863;DHT22;37900;52.996;6.278;2023-09-19T03:51:20;19.80;99.90
51863;DHT22;37900;52.996;6.278;2023-09-19T03:53:45;19.80;99.90
51863;DHT22;37900;52.996;6.278;2023-09-19T03:56:11;19.80;99.90
51863;DHT22;37900;52.996;6.278;2023-09-19T03:58:37;19.80;99.90
51863;DHT22;37900;52.996;6.278;2023-09-19T04:01:05;19.80;99.90
51863;DHT22;37900;52.996;6.278;2023-09-19T04:03:32;19.70;99.90
51863;DHT22;37900;52.996;6.278;2023-09-19T04:06:12;19.80;99.90
51863;DHT22;37900;52.996;6.278;2023-09-19T04:08:37;19.70;99.90
51863;DHT22;37900;52.996;6.278;2023-09-19T04:11:03;19.80;99.90
51863;DHT22;37900;52.996;6.278;2023-09-19T04:13:29;19.80;99.90
51863;DHT22;37900;52.996;6.278;2023-09-19T04:15:55;19.80;99.90
51863;DHT22;37900;52.996;6.278;2023-09-19T04:18:20;19.80;99.90
51863;DHT22;37900;52.996;6.278;2023-09-19T04:20:51;19.70;99.90
51863;DHT22;37900;52.996;6.278;2023-09-19T04:23:17;19.80;99.90
51863;DHT22;37900;52.996;6.278;2023-09-19T04:25:43;19.70;99.90
51863;DHT22;37900;52.996;6.278;2023-09-19T04:28:08;19.80;99.90
51863;DHT22;37900;52.996;6.278;2023-09-19T04:30:36;19.80;99.90
51863;DHT22;37900;52.996;6.278;2023-09-19T04:33:02;19.80;99.90
51863;DHT22;37900;52.996;6.278;2023-09-19T04:35:28;19.80;99.90
51863;DHT22;37900;52.996;6.278;2023-09-19T04:37:57;19.70;99.90
51863;DHT22;37900;52.996;6.278;2023-09-19T04:40:22;19.80;99.90
51863;DHT22;37900;52.996;6.278;2023-09-19T04:42:53;19.80;99.90
51863;DHT22;37900;52.996;6.278;2023-09-19T04:45:24;19.80;99.90
51863;DHT22;37900;52.996;6.278;2023-09-19T04:47:50;19.70;99.90
51863;DHT22;37900;52.996;6.278;2023-09-19T04:50:16;19.70;99.90
51863;DHT22;37900;52.996;6.278;2023-09-19T04:52:43;19.70;99.90
51863;DHT22;37900;52.996;6.278;2023-09-19T04:55:15;19.70;99.90
51863;DHT22;37900;52.996;6.278;2023-09-19T04:57:48;19.70;99.90
51863;DHT22;37900;52.996;6.278;2023-09-19T05:00:14;19.70;99.90
51863;DHT22;37900;52.996;6.278;2023-09-19T05:02:41;19.70;99.90
51863;DHT22;37900;52.996;6.278;2023-09-19T05:05:07;19.70;99.90
51863;DHT22;37900;52.996;6.278;2023-09-19T05:07:34;19.70;99.90
51863;DHT22;37900;52.996;6.278;2023-09-19T05:09:59;19.70;99.90
51863;DHT22;37900;52.996;6.278;2023-09-19T05:12:28;19.70;99.90
51863;DHT22;37900;52.996;6.278;2023-09-19T05:14:55;19.70;99.90
51863;DHT22;37900;52.996;6.278;2023-09-19T05:17:20;19.70;99.90
51863;DHT22;37900;52.996;6.278;2023-09-19T05:19:46;19.70;99.90
51863;DHT22;37900;52.996;6.278;2023-09-19T05:22:12;19.50;99.90
51863;DHT22;37900;52.996;6.278;2023-09-19T05:24:37;19.70;99.90
51863;DHT22;37900;52.996;6.278;2023-09-19T05:27:04;19.70;99.90
51863;DHT22;37900;52.996;6.278;2023-09-19T05:29:33;19.70;99.90
51863;DHT22;37900;52.996;6.278;2023-09-19T05:31:59;19.70;99.90
51863;DHT22;37900;52.996;6.278;2023-09-19T05:34:24;19.70;99.90
51863;DHT22;37900;52.996;6.278;2023-09-19T05:36:53;20.20;99.90
51863;DHT22;37900;52.996;6.278;2023-09-19T05:39:19;19.70;99.90
51863;DHT22;37900;52.996;6.278;2023-09-19T05:41:45;19.70;99.90
51863;DHT22;37900;52.996;6.278;2023-09-19T05:44:13;19.70;99.90
51863;DHT22;37900;52.996;6.278;2023-09-19T05:46:39;19.70;99.90
51863;DHT22;37900;52.996;6.278;2023-09-19T05:49:05;19.70;99.90
51863;DHT22;37900;52.996;6.278;2023-09-19T05:51:31;19.70;99.90
51863;DHT22;37900;52.996;6.278;2023-09-19T05:54:05;19.70;99.90
51863;DHT22;37900;52.996;6.278;2023-09-19T05:56:31;19.70;99.90
51863;DHT22;37900;52.996;6.278;2023-09-19T05:58:56;19.70;99.90
51863;DHT22;37900;52.996;6.278;2023-09-19T06:01:22;19.70;99.90
51863;DHT22;37900;52.996;6.278;2023-09-19T06:03:48;19.70;99.90
51863;DHT22;37900;52.996;6.278;2023-09-19T06:06:14;19.70;99.90
51863;DHT22;37900;52.996;6.278;2023-09-19T06:08:39;19.70;99.90
51863;DHT22;37900;52.996;6.278;2023-09-19T06:11:05;19.70;99.90
51863;DHT22;37900;52.996;6.278;2023-09-19T06:13:34;19.70;99.90
51863;DHT22;37900;52.996;6.278;2023-09-19T06:16:01;19.70;99.90
51863;DHT22;37900;52.996;6.278;2023-09-19T06:18:33;19.70;99.90
51863;DHT22;37900;52.996;6.278;2023-09-19T06:20:59;19.70;99.90
51863;DHT22;37900;52.996;6.278;2023-09-19T06:23:25;19.70;99.90
51863;DHT22;37900;52.996;6.278;2023-09-19T06:25:54;19.70;99.90
51863;DHT22;37900;52.996;6.278;2023-09-19T06:28:20;19.70;99.90
51863;DHT22;37900;52.996;6.278;2023-09-19T06:30:50;19.70;99.90
51863;DHT22;37900;52.996;6.278;2023-09-19T06:33:15;19.70;99.90
51863;DHT22;37900;52.996;6.278;2023-09-19T06:35:42;19.70;99.90
51863;DHT22;37900;52.996;6.278;2023-09-19T06:38:10;19.70;99.90
51863;DHT22;37900;52.996;6.278;2023-09-19T06:40:38;19.70;99.90
51863;DHT22;37900;52.996;6.278;2023-09-19T06:43:05;19.70;99.90
51863;DHT22;37900;52.996;6.278;2023-09-19T06:45:30;19.70;99.90
51863;DHT22;37900;52.996;6.278;2023-09-19T06:47:57;19.70;99.90
51863;DHT22;37900;52.996;6.278;2023-09-19T06:50:23;19.70;99.90
51863;DHT22;37900;52.996;6.278;2023-09-19T06:52:49;19.70;99.90
51863;DHT22;37900;52.996;6.278;2023-09-19T06:55:16;19.70;99.90
51863;DHT22;37900;52.996;6.278;2023-09-19T06:57:42;19.70;99.90
51863;DHT22;37900;52.996;6.278;2023-09-19T07:00:09;19.70;99.90
51863;DHT22;37900;52.996;6.278;2023-09-19T07:02:41;19.70;99.90
51863;DHT22;37900;52.996;6.278;2023-09-19T07:05:07;19.70;99.90
51863;DHT22;37900;52.996;6.278;2023-09-19T07:07:32;19.80;99.90
51863;DHT22;37900;52.996;6.278;2023-09-19T07:10:03;19.80;99.90
51863;DHT22;37900;52.996;6.278;2023-09-19T07:12:31;19.80;99.90
51863;DHT22;37900;52.996;6.278;2023-09-19T07:14:58;19.80;99.90
51863;DHT22;37900;52.996;6.278;2023-09-19T07:17:23;19.70;99.90
51863;DHT22;37900;52.996;6.278;2023-09-19T07:19:49;19.80;99.90
51863;DHT22;37900;52.996;6.278;2023-09-19T07:22:15;19.80;99.90
51863;DHT22;37900;52.996;6.278;2023-09-19T07:24:41;19.80;99.90
51863;DHT22;37900;52.996;6.278;2023-09-19T07:27:13;19.80;99.90
51863;DHT22;37900;52.996;6.278;2023-09-19T07:29:39;19.80;99.90
51863;DHT22;37900;52.996;6.278;2023-09-19T07:32:05;19.70;99.90
51863;DHT22;37900;52.996;6.278;2023-09-19T07:34:32;19.80;99.90
51863;DHT22;37900;52.996;6.278;2023-09-19T07:39:43;19.80;99.90
51863;DHT22;37900;52.996;6.278;2023-09-19T07:42:22;19.80;99.90
51863;DHT22;37900;52.996;6.278;2023-09-19T07:44:54;19.80;99.90
51863;DHT22;37900;52.996;6.278;2023-09-19T07:50:38;19.80;99.90
51863;DHT22;37900;52.996;6.278;2023-09-19T07:56:19;19.80;99.90
51863;DHT22;37900;52.996;6.278;2023-09-19T08:01:58;19.70;99.90
51863;DHT22;37900;52.996;6.278;2023-09-19T08:04:23;19.70;99.90
51863;DHT22;37900;52.996;6.278;2023-09-19T08:06:51;19.70;99.90
51863;DHT22;37900;52.996;6.278;2023-09-19T08:09:17;19.70;99.90
51863;DHT22;37900;52.996;6.278;2023-09-19T08:11:49;19.70;99.90
51863;DHT22;37900;52.996;6.278;2023-09-19T08:14:16;19.70;99.90
51863;DHT22;37900;52.996;6.278;2023-09-19T08:16:41;19.70;99.90
51863;DHT22;37900;52.996;6.278;2023-09-19T08:19:09;19.70;99.90
51863;DHT22;37900;52.996;6.278;2023-09-19T08:21:35;19.70;99.90
51863;DHT22;37900;52.996;6.278;2023-09-19T08:24:01;19.70;99.90
51863;DHT22;37900;52.996;6.278;2023-09-19T08:26:29;19.70;99.90
51863;DHT22;37900;52.996;6.278;2023-09-19T08:28:56;19.70;99.90
51863;DHT22;37900;52.996;6.278;2023-09-19T08:31:21;19.70;99.90
51863;DHT22;37900;52.996;6.278;2023-09-19T08:33:48;19.70;99.90
51863;DHT22;37900;52.996;6.278;2023-09-19T08:36:14;19.70;99.90
51863;DHT22;37900;52.996;6.278;2023-09-19T08:38:40;19.70;99.90
51863;DHT22;37900;52.996;6.278;2023-09-19T08:41:07;19.70;99.90
51863;DHT22;37900;52.996;6.278;2023-09-19T08:43:35;19.70;99.90
51863;DHT22;37900;52.996;6.278;2023-09-19T08:48:30;19.70;99.90
51863;DHT22;37900;52.996;6.278;2023-09-19T08:53:35;19.70;99.90
51863;DHT22;37900;52.996;6.278;2023-09-19T08:56:03;19.70;99.90
51863;DHT22;37900;52.996;6.278;2023-09-19T08:58:34;19.70;99.90
51863;DHT22;37900;52.996;6.278;2023-09-19T09:01:06;19.70;99.90
51863;DHT22;37900;52.996;6.278;2023-09-19T09:03:33;19.70;99.90
51863;DHT22;37900;52.996;6.278;2023-09-19T09:06:00;19.70;99.90
51863;DHT22;37900;52.996;6.278;2023-09-19T09:08:26;19.70;99.90
51863;DHT22;37900;52.996;6.278;2023-09-19T09:10:52;19.70;99.90
51863;DHT22;37900;52.996;6.278;2023-09-19T09:13:18;19.70;99.90
51863;DHT22;37900;52.996;6.278;2023-09-19T09:15:44;19.70;99.90
51863;DHT22;37900;52.996;6.278;2023-09-19T09:18:13;19.70;99.90
51863;DHT22;37900;52.996;6.278;2023-09-19T09:20:39;19.70;99.90
51863;DHT22;37900;52.996;6.278;2023-09-19T09:23:04;19.70;99.90
51863;DHT22;37900;52.996;6.278;2023-09-19T09:25:53;19.70;99.90
51863;DHT22;37900;52.996;6.278;2023-09-19T09:28:21;19.70;99.90
51863;DHT22;37900;52.996;6.278;2023-09-19T09:30:47;19.70;99.90
51863;DHT22;37900;52.996;6.278;2023-09-19T09:33:13;19.70;99.90
51863;DHT22;37900;52.996;6.278;2023-09-19T09:38:22;19.70;99.90
51863;DHT22;37900;52.996;6.278;2023-09-19T09:40:53;19.70;99.90
51863;DHT22;37900;52.996;6.278;2023-09-19T09:43:28;19.70;99.90
51863;DHT22;37900;52.996;6.278;2023-09-19T09:49:00;19.70;99.90
51863;DHT22;37900;52.996;6.278;2023-09-19T09:51:44;19.70;99.90
51863;DHT22;37900;52.996;6.278;2023-09-19T09:54:23;19.70;99.90
51863;DHT22;37900;52.996;6.278;2023-09-19T09:56:52;19.70;99.90
51863;DHT22;37900;52.996;6.278;2023-09-19T09:59:20;19.70;99.90
51863;DHT22;37900;52.996;6.278;2023-09-19T10:01:49;19.70;99.90
51863;DHT22;37900;52.996;6.278;2023-09-19T10:04:28;20.10;99.90
51863;DHT22;37900;52.996;6.278;2023-09-19T10:07:01;19.70;99.90
51863;DHT22;37900;52.996;6.278;2023-09-19T10:09:31;19.70;99.90
51863;DHT22;37900;52.996;6.278;2023-09-19T10:12:09;19.70;99.90
51863;DHT22;37900;52.996;6.278;2023-09-19T10:14:38;19.70;99.90
51863;DHT22;37900;52.996;6.278;2023-09-19T10:17:05;19.70;99.90
51863;DHT22;37900;52.996;6.278;2023-09-19T10:19:42;19.70;99.90
51863;DHT22;37900;52.996;6.278;2023-09-19T10:22:12;19.70;99.90
51863;DHT22;37900;52.996;6.278;2023-09-19T10:24:40;19.70;99.90
51863;DHT22;37900;52.996;6.278;2023-09-19T10:27:06;19.70;99.90
51863;DHT22;37900;52.996;6.278;2023-09-19T10:29:35;19.60;99.90
51863;DHT22;37900;52.996;6.278;2023-09-19T10:32:03;19.70;99.90
51863;DHT22;37900;52.996;6.278;2023-09-19T10:34:34;19.60;99.90
51863;DHT22;37900;52.996;6.278;2023-09-19T10:37:00;19.60;99.90
51863;DHT22;37900;52.996;6.278;2023-09-19T10:39:31;19.60;99.90
51863;DHT22;37900;52.996;6.278;2023-09-19T10:41:57;19.60;99.90
51863;DHT22;37900;52.996;6.278;2023-09-19T10:44:28;19.70;99.90
51863;DHT22;37900;52.996;6.278;2023-09-19T10:46:57;19.60;99.90
51863;DHT22;37900;52.996;6.278;2023-09-19T10:49:22;19.70;99.90
51863;DHT22;37900;52.996;6.278;2023-09-19T10:51:50;19.70;99.90
51863;DHT22;37900;52.996;6.278;2023-09-19T10:54:22;19.70;99.90
51863;DHT22;37900;52.996;6.278;2023-09-19T10:56:52;19.60;99.90
51863;DHT22;37900;52.996;6.278;2023-09-19T11:08:52;19.60;99.90
51863;DHT22;37900;52.996;6.278;2023-09-19T11:24:57;19.60;99.90
51863;DHT22;37900;52.996;6.278;2023-09-19T11:34:21;19.70;99.90
51863;DHT22;37900;52.996;6.278;2023-09-19T11:36:41;19.60;99.90
51863;DHT22;37900;52.996;6.278;2023-09-19T11:39:07;19.60;99.90
51863;DHT22;37900;52.996;6.278;2023-09-19T11:41:50;19.60;99.90
51863;DHT22;37900;52.996;6.278;2023-09-19T11:44:32;19.70;99.90
51863;DHT22;37900;52.996;6.278;2023-09-19T11:47:22;19.60;99.90
51863;DHT22;37900;52.996;6.278;2023-09-19T11:49:53;19.70;99.90
51863;DHT22;37900;52.996;6.278;2023-09-19T11:52:21;19.70;99.90
51863;DHT22;37900;52.996;6.278;2023-09-19T11:54:58;19.60;99.90
51863;DHT22;37900;52.996;6.278;2023-09-19T12:10:16;19.70;99.90
51863;DHT22;37900;52.996;6.278;2023-09-19T12:12:47;19.60;99.90
51863;DHT22;37900;52.996;6.278;2023-09-19T12:15:14;19.70;99.90
51863;DHT22;37900;52.996;6.278;2023-09-19T12:17:40;19.70;99.90
51863;DHT22;37900;52.996;6.278;2023-09-19T12:22:44;19.70;99.90
51863;DHT22;37900;52.996;6.278;2023-09-19T12:57:33;19.70;99.90
51863;DHT22;37900;52.996;6.278;2023-09-19T13:00:03;19.60;99.90
51863;DHT22;37900;52.996;6.278;2023-09-19T13:02:31;19.70;99.90
51863;DHT22;37900;52.996;6.278;2023-09-19T13:04:58;19.70;99.90
51863;DHT22;37900;52.996;6.278;2023-09-19T13:07:42;19.70;99.90
51863;DHT22;37900;52.996;6.278;2023-09-19T13:10:14;19.70;99.90
51863;DHT22;37900;52.996;6.278;2023-09-19T13:12:42;19.70;99.90
51863;DHT22;37900;52.996;6.278;2023-09-19T13:15:13;19.70;99.90
51863;DHT22;37900;52.996;6.278;2023-09-19T13:17:44;19.70;99.90
51863;DHT22;37900;52.996;6.278;2023-09-19T13:20:23;19.70;99.90
51863;DHT22;37900;52.996;6.278;2023-09-19T13:23:07;19.70;99.90
51863;DHT22;37900;52.996;6.278;2023-09-19T13:25:50;19.70;99.90
51863;DHT22;37900;52.996;6.278;2023-09-19T13:28:15;19.70;99.90
51863;DHT22;37900;52.996;6.278;2023-09-19T13:30:41;19.70;99.90
51863;DHT22;37900;52.996;6.278;2023-09-19T13:33:12;19.70;99.90
51863;DHT22;37900;52.996;6.278;2023-09-19T13:35:39;19.70;99.90
51863;DHT22;37900;52.996;6.278;2023-09-19T13:38:06;19.70;99.90
51863;DHT22;37900;52.996;6.278;2023-09-19T13:40:36;19.70;99.90
51863;DHT22;37900;52.996;6.278;2023-09-19T13:43:04;19.70;99.90
51863;DHT22;37900;52.996;6.278;2023-09-19T13:45:32;19.70;99.90
51863;DHT22;37900;52.996;6.278;2023-09-19T13:47:57;19.60;99.90
51863;DHT22;37900;52.996;6.278;2023-09-19T13:50:26;19.70;99.90
51863;DHT22;37900;52.996;6.278;2023-09-19T13:52:51;19.70;99.90
51863;DHT22;37900;52.996;6.278;2023-09-19T13:55:19;19.70;99.90
51863;DHT22;37900;52.996;6.278;2023-09-19T13:57:46;19.70;99.90
51863;DHT22;37900;52.996;6.278;2023-09-19T14:00:12;19.70;99.90
51863;DHT22;37900;52.996;6.278;2023-09-19T14:02:41;19.70;99.90
51863;DHT22;37900;52.996;6.278;2023-09-19T14:05:09;19.70;99.90
51863;DHT22;37900;52.996;6.278;2023-09-19T14:07:37;19.70;99.90
51863;DHT22;37900;52.996;6.278;2023-09-19T14:10:03;19.70;99.90
51863;DHT22;37900;52.996;6.278;2023-09-19T14:12:29;19.70;99.90
51863;DHT22;37900;52.996;6.278;2023-09-19T14:14:55;19.70;99.90
51863;DHT22;37900;52.996;6.278;2023-09-19T14:17:21;19.70;99.90
51863;DHT22;37900;52.996;6.278;2023-09-19T14:19:47;19.70;99.90
51863;DHT22;37900;52.996;6.278;2023-09-19T14:22:12;19.70;99.90
51863;DHT22;37900;52.996;6.278;2023-09-19T14:24:47;19.70;99.90
51863;DHT22;37900;52.996;6.278;2023-09-19T14:27:13;19.60;99.90
51863;DHT22;37900;52.996;6.278;2023-09-19T14:29:38;19.60;99.90
51863;DHT22;37900;52.996;6.278;2023-09-19T14:32:04;19.70;99.90
51863;DHT22;37900;52.996;6.278;2023-09-19T14:34:30;19.70;99.90
51863;DHT22;37900;52.996;6.278;2023-09-19T14:36:56;19.70;99.90
51863;DHT22;37900;52.996;6.278;2023-09-19T14:39:22;19.60;99.90
51863;DHT22;37900;52.996;6.278;2023-09-19T14:41:49;19.70;99.90
51863;DHT22;37900;52.996;6.278;2023-09-19T14:44:14;19.60;99.90
51863;DHT22;37900;52.996;6.278;2023-09-19T14:46:41;19.70;99.90
51863;DHT22;37900;52.996;6.278;2023-09-19T14:49:08;19.70;99.90
51863;DHT22;37900;52.996;6.278;2023-09-19T14:51:35;19.70;99.90
51863;DHT22;37900;52.996;6.278;2023-09-19T14:54:01;19.70;99.90
51863;DHT22;37900;52.996;6.278;2023-09-19T14:56:27;19.70;99.90
51863;DHT22;37900;52.996;6.278;2023-09-19T14:58:55;19.70;99.90
51863;DHT22;37900;52.996;6.278;2023-09-19T15:01:20;19.70;99.90
51863;DHT22;37900;52.996;6.278;2023-09-19T15:03:47;19.70;99.90
51863;DHT22;37900;52.996;6.278;2023-09-19T15:06:16;19.70;99.90
51863;DHT22;37900;52.996;6.278;2023-09-19T15:08:46;19.70;99.90
51863;DHT22;37900;52.996;6.278;2023-09-19T15:11:21;19.70;99.90
51863;DHT22;37900;52.996;6.278;2023-09-19T15:13:48;19.70;99.90
51863;DHT22;37900;52.996;6.278;2023-09-19T15:16:15;19.70;99.90
51863;DHT22;37900;52.996;6.278;2023-09-19T15:18:41;19.70;99.90
51863;DHT22;37900;52.996;6.278;2023-09-19T15:21:08;19.70;99.90
51863;DHT22;37900;52.996;6.278;2023-09-19T15:23:34;19.70;99.90
51863;DHT22;37900;52.996;6.278;2023-09-19T15:26:05;19.70;99.90
51863;DHT22;37900;52.996;6.278;2023-09-19T15:28:31;19.70;99.90
51863;DHT22;37900;52.996;6.278;2023-09-19T15:31:02;19.70;99.90
51863;DHT22;37900;52.996;6.278;2023-09-19T15:33:28;19.60;99.90
51863;DHT22;37900;52.996;6.278;2023-09-19T15:36:06;19.70;99.90
51863;DHT22;37900;52.996;6.278;2023-09-19T15:38:50;19.70;99.90
51863;DHT22;37900;52.996;6.278;2023-09-19T15:41:18;19.70;99.90
51863;DHT22;37900;52.996;6.278;2023-09-19T15:43:44;19.70;99.90
51863;DHT22;37900;52.996;6.278;2023-09-19T15:46:09;19.70;99.90
51863;DHT22;37900;52.996;6.278;2023-09-19T15:48:35;19.70;99.90
51863;DHT22;37900;52.996;6.278;2023-09-19T15:51:04;19.70;99.90
51863;DHT22;37900;52.996;6.278;2023-09-19T15:53:49;19.60;99.90
51863;DHT22;37900;52.996;6.278;2023-09-19T15:56:16;19.70;99.90
51863;DHT22;37900;52.996;6.278;2023-09-19T15:58:44;19.50;99.90
51863;DHT22;37900;52.996;6.278;2023-09-19T16:01:10;19.60;99.90
51863;DHT22;37900;52.996;6.278;2023-09-19T16:03:36;19.70;99.90
51863;DHT22;37900;52.996;6.278;2023-09-19T16:06:04;19.60;99.90
51863;DHT22;37900;52.996;6.278;2023-09-19T16:08:32;19.70;99.90
51863;DHT22;37900;52.996;6.278;2023-09-19T16:10:59;19.70;99.90
51863;DHT22;37900;52.996;6.278;2023-09-19T16:13:25;19.70;99.90
51863;DHT22;37900;52.996;6.278;2023-09-19T16:15:51;19.60;99.90
51863;DHT22;37900;52.996;6.278;2023-09-19T16:18:16;19.70;99.90
51863;DHT22;37900;52.996;6.278;2023-09-19T16:20:42;19.70;99.90
51863;DHT22;37900;52.996;6.278;2023-09-19T16:23:07;19.70;99.90
51863;DHT22;37900;52.996;6.278;2023-09-19T16:25:33;19.70;99.90
51863;DHT22;37900;52.996;6.278;2023-09-19T16:27:59;19.70;99.90
51863;DHT22;37900;52.996;6.278;2023-09-19T16:30:24;19.70;99.90
51863;DHT22;37900;52.996;6.278;2023-09-19T16:32:50;19.70;99.90
51863;DHT22;37900;52.996;6.278;2023-09-19T16:35:16;19.70;99.90
51863;DHT22;37900;52.996;6.278;2023-09-19T16:37:41;19.70;99.90
51863;DHT22;37900;52.996;6.278;2023-09-19T16:40:07;19.70;99.90
51863;DHT22;37900;52.996;6.278;2023-09-19T16:42:34;19.70;99.90
51863;DHT22;37900;52.996;6.278;2023-09-19T16:44:59;19.70;99.90
51863;DHT22;37900;52.996;6.278;2023-09-19T16:47:25;19.70;99.90
51863;DHT22;37900;52.996;6.278;2023-09-19T16:49:51;19.70;99.90
51863;DHT22;37900;52.996;6.278;2023-09-19T16:52:18;19.70;99.90
51863;DHT22;37900;52.996;6.278;2023-09-19T16:54:43;19.70;99.90
51863;DHT22;37900;52.996;6.278;2023-09-19T16:57:09;19.80;99.90
51863;DHT22;37900;52.996;6.278;2023-09-19T16:59:34;19.70;99.90
51863;DHT22;37900;52.996;6.278;2023-09-19T17:02:00;19.80;99.90
51863;DHT22;37900;52.996;6.278;2023-09-19T17:04:26;19.70;99.90
51863;DHT22;37900;52.996;6.278;2023-09-19T17:06:52;19.80;99.90
51863;DHT22;37900;52.996;6.278;2023-09-19T17:09:18;19.70;99.90
51863;DHT22;37900;52.996;6.278;2023-09-19T17:11:43;19.80;99.90
51863;DHT22;37900;52.996;6.278;2023-09-19T17:14:11;19.80;99.90
51863;DHT22;37900;52.996;6.278;2023-09-19T17:16:36;19.70;99.90
51863;DHT22;37900;52.996;6.278;2023-09-19T17:19:02;19.70;99.90
51863;DHT22;37900;52.996;6.278;2023-09-19T17:21:29;19.70;99.90
51863;DHT22;37900;52.996;6.278;2023-09-19T17:23:55;19.70;99.90
51863;DHT22;37900;52.996;6.278;2023-09-19T17:26:23;19.80;99.90
51863;DHT22;37900;52.996;6.278;2023-09-19T17:47:00;19.70;99.90